createdAt,value
2023-02-05T00:00:22.590Z,5.44
2023-02-05T00:01:22.559Z,5.41
2023-02-05T00:02:22.630Z,5.43
2023-02-05T00:03:22.578Z,5.43
2023-02-05T00:04:22.531Z,5.36
2023-02-05T00:05:22.550Z,5.34
2023-02-05T00:06:22.517Z,5.34
2023-02-05T00:07:22.498Z,5.33
2023-02-05T00:08:22.516Z,5.33
2023-02-05T00:09:22.471Z,5.33
2023-02-05T00:10:22.531Z,5.33
2023-02-05T00:11:22.474Z,5.33
2023-02-05T00:12:22.437Z,5.32
2023-02-05T00:13:22.480Z,5.34
2023-02-05T00:14:22.419Z,5.32
2023-02-05T00:15:22.417Z,5.39
2023-02-05T00:16:22.457Z,5.44
2023-02-05T00:17:22.396Z,5.47
2023-02-05T00:18:22.402Z,5.58
2023-02-05T00:19:22.431Z,5.62
2023-02-05T00:20:22.357Z,5.73
2023-02-05T00:21:22.376Z,5.72
2023-02-05T00:22:22.370Z,5.76
2023-02-05T00:23:22.345Z,5.75
2023-02-05T00:24:22.323Z,5.79
2023-02-05T00:25:22.403Z,5.77
2023-02-05T00:26:22.304Z,5.77
2023-02-05T00:27:22.296Z,5.70
2023-02-05T00:28:22.303Z,5.66
2023-02-05T00:29:22.294Z,5.65
2023-02-05T00:30:22.298Z,5.59
2023-02-05T00:31:22.379Z,5.59
2023-02-05T00:32:22.237Z,5.61
2023-02-05T00:33:22.273Z,5.65
2023-02-05T00:34:22.252Z,5.67
2023-02-05T00:35:22.208Z,5.69
2023-02-05T00:36:22.236Z,5.67
2023-02-05T00:37:22.205Z,5.66
2023-02-05T00:38:22.172Z,5.66
2023-02-05T00:39:22.179Z,5.66
2023-02-05T00:40:22.216Z,5.66
2023-02-05T00:41:22.148Z,5.70
2023-02-05T00:42:22.144Z,5.70
2023-02-05T00:43:22.136Z,5.75
2023-02-05T00:44:22.161Z,5.76
2023-02-05T00:45:22.109Z,5.70
2023-02-05T00:46:22.193Z,5.67
2023-02-05T00:47:22.147Z,5.65
2023-02-05T00:48:22.081Z,5.62
2023-02-05T00:49:22.114Z,5.58
2023-02-05T00:50:22.056Z,5.58
2023-02-05T00:51:22.046Z,5.52
2023-02-05T00:52:22.108Z,5.54
2023-02-05T00:53:22.042Z,5.58
2023-02-05T00:54:22.031Z,5.57
2023-02-05T00:55:22.024Z,5.59
2023-02-05T00:56:21.991Z,5.62
2023-02-05T00:57:21.993Z,5.66
2023-02-05T00:58:21.978Z,5.72
2023-02-05T00:59:23.904Z,5.70
2023-02-05T01:00:21.976Z,5.72
2023-02-05T01:01:21.977Z,5.72
2023-02-05T01:02:21.943Z,5.73
2023-02-05T01:03:21.940Z,5.72
2023-02-05T01:04:21.914Z,5.72
2023-02-05T01:05:21.908Z,5.70
2023-02-05T01:06:21.924Z,5.67
2023-02-05T01:07:21.902Z,5.61
2023-02-05T01:08:21.903Z,5.54
2023-02-05T01:09:21.878Z,5.52
2023-02-05T01:10:21.939Z,5.52
2023-02-05T01:11:21.905Z,5.48
2023-02-05T01:12:21.854Z,5.48
2023-02-05T01:13:21.842Z,5.48
2023-02-05T01:14:21.844Z,5.48
2023-02-05T01:15:21.864Z,5.47
2023-02-05T01:16:21.862Z,5.40
2023-02-05T01:17:21.843Z,5.41
2023-02-05T01:18:21.812Z,5.39
2023-02-05T01:19:21.772Z,5.39
2023-02-05T01:20:21.800Z,5.36
2023-02-05T01:21:21.767Z,5.36
2023-02-05T01:22:21.775Z,5.37
2023-02-05T01:23:21.749Z,5.34
2023-02-05T01:24:21.731Z,5.36
2023-02-05T01:25:21.736Z,5.34
2023-02-05T01:26:21.737Z,5.30
2023-02-05T01:27:21.706Z,5.33
2023-02-05T01:28:21.702Z,5.30
2023-02-05T01:29:21.678Z,5.32
2023-02-05T01:30:21.722Z,5.30
2023-02-05T01:31:21.709Z,5.30
2023-02-05T01:32:21.683Z,5.34
2023-02-05T01:33:21.670Z,5.37
2023-02-05T01:34:21.628Z,5.36
2023-02-05T01:35:21.609Z,5.41
2023-02-05T01:36:21.615Z,5.43
2023-02-05T01:37:21.608Z,5.52
2023-02-05T01:38:21.622Z,5.54
2023-02-05T01:39:21.572Z,5.59
2023-02-05T01:40:21.565Z,5.65
2023-02-05T01:41:21.596Z,5.65
2023-02-05T01:42:21.531Z,5.54
2023-02-05T01:43:21.549Z,5.50
2023-02-05T01:44:21.528Z,5.47
2023-02-05T01:45:21.572Z,5.43
2023-02-05T01:46:21.607Z,5.39
2023-02-05T01:47:21.497Z,5.37
2023-02-05T01:48:21.464Z,5.36
2023-02-05T01:49:21.468Z,5.37
2023-02-05T01:50:21.477Z,5.37
2023-02-05T01:51:21.493Z,5.33
2023-02-05T01:52:21.440Z,5.32
2023-02-05T01:53:21.466Z,5.32
2023-02-05T01:54:21.455Z,5.40
2023-02-05T01:55:21.411Z,5.41
2023-02-05T01:56:21.427Z,5.40
2023-02-05T01:57:21.379Z,5.37
2023-02-05T01:58:21.375Z,5.37
2023-02-05T01:59:21.391Z,5.32
2023-02-05T02:00:21.348Z,5.33
2023-02-05T02:01:21.406Z,5.34
2023-02-05T02:02:21.347Z,5.39
2023-02-05T02:03:21.321Z,5.36
2023-02-05T02:04:21.301Z,5.37
2023-02-05T02:05:21.426Z,5.41
2023-02-05T02:06:21.300Z,5.34
2023-02-05T02:07:21.338Z,5.36
2023-02-05T02:08:21.287Z,5.34
2023-02-05T02:09:21.279Z,5.32
2023-02-05T02:10:21.236Z,5.32
2023-02-05T02:11:21.238Z,5.30
2023-02-05T02:12:21.265Z,5.33
2023-02-05T02:13:21.221Z,5.34
2023-02-05T02:14:21.226Z,5.37
2023-02-05T02:15:21.248Z,5.30
2023-02-05T02:16:21.227Z,5.32
2023-02-05T02:17:21.204Z,5.24
2023-02-05T02:18:21.171Z,5.24
2023-02-05T02:19:21.184Z,5.21
2023-02-05T02:20:21.161Z,5.21
2023-02-05T02:21:21.146Z,5.22
2023-02-05T02:22:21.117Z,5.25
2023-02-05T02:23:21.164Z,5.27
2023-02-05T02:24:21.106Z,5.27
2023-02-05T02:25:21.102Z,5.27
2023-02-05T02:26:21.115Z,5.25
2023-02-05T02:27:21.113Z,5.24
2023-02-05T02:28:21.074Z,5.22
2023-02-05T02:29:21.121Z,5.22
2023-02-05T02:30:21.069Z,5.18
2023-02-05T02:31:21.056Z,5.16
2023-02-05T02:32:21.044Z,5.18
2023-02-05T02:33:21.019Z,5.15
2023-02-05T02:34:21.066Z,5.18
2023-02-05T02:35:21.051Z,5.15
2023-02-05T02:36:20.996Z,5.15
2023-02-05T02:37:21.002Z,5.19
2023-02-05T02:38:21.002Z,5.22
2023-02-05T02:39:20.974Z,5.21
2023-02-05T02:40:20.945Z,5.19
2023-02-05T02:41:20.936Z,5.21
2023-02-05T02:42:20.969Z,5.21
2023-02-05T02:43:20.924Z,5.21
2023-02-05T02:44:20.905Z,5.21
2023-02-05T02:45:20.903Z,5.18
2023-02-05T02:46:20.977Z,5.18
2023-02-05T02:47:20.909Z,5.22
2023-02-05T02:48:20.869Z,5.27
2023-02-05T02:49:20.855Z,5.33
2023-02-05T02:50:20.864Z,5.40
2023-02-05T02:51:20.868Z,5.44
2023-02-05T02:52:20.854Z,5.43
2023-02-05T02:53:20.817Z,5.41
2023-02-05T02:54:20.808Z,5.36
2023-02-05T02:55:20.806Z,5.34
2023-02-05T02:56:20.850Z,5.32
2023-02-05T02:57:20.784Z,5.29
2023-02-05T02:58:20.781Z,5.27
2023-02-05T02:59:20.749Z,5.24
2023-02-05T03:00:20.813Z,5.24
2023-02-05T03:01:20.760Z,5.24
2023-02-05T03:02:20.744Z,5.18
2023-02-05T03:03:20.712Z,5.24
2023-02-05T03:04:20.760Z,5.22
2023-02-05T03:05:20.696Z,5.24
2023-02-05T03:06:20.685Z,5.27
2023-02-05T03:07:20.683Z,5.30
2023-02-05T03:08:20.723Z,5.27
2023-02-05T03:09:20.703Z,5.27
2023-02-05T03:10:20.718Z,5.32
2023-02-05T03:11:20.633Z,5.36
2023-02-05T03:12:20.619Z,5.36
2023-02-05T03:13:20.648Z,5.40
2023-02-05T03:14:20.673Z,5.40
2023-02-05T03:15:20.610Z,5.44
2023-02-05T03:16:20.684Z,5.47
2023-02-05T03:17:20.587Z,5.55
2023-02-05T03:18:20.580Z,5.52
2023-02-05T03:19:20.605Z,5.33
2023-02-05T03:20:20.546Z,5.16
2023-02-05T03:21:20.531Z,5.03
2023-02-05T03:22:20.532Z,4.96
2023-02-05T03:23:20.513Z,4.86
2023-02-05T03:24:20.532Z,4.85
2023-02-05T03:25:20.517Z,4.88
2023-02-05T03:26:20.507Z,4.88
2023-02-05T03:27:20.481Z,4.91
2023-02-05T03:28:20.460Z,4.97
2023-02-05T03:29:20.475Z,4.98
2023-02-05T03:30:20.443Z,4.98
2023-02-05T03:31:20.469Z,5.03
2023-02-05T03:32:20.439Z,5.04
2023-02-05T03:33:20.439Z,5.06
2023-02-05T03:34:20.432Z,5.06
2023-02-05T03:35:20.414Z,5.09
2023-02-05T03:36:20.382Z,5.12
2023-02-05T03:37:20.385Z,5.15
2023-02-05T03:38:20.370Z,5.18
2023-02-05T03:39:20.341Z,5.15
2023-02-05T03:40:20.359Z,5.14
2023-02-05T03:41:20.339Z,5.16
2023-02-05T03:42:20.360Z,5.15
2023-02-05T03:43:20.305Z,5.09
2023-02-05T03:44:20.325Z,5.09
2023-02-05T03:45:20.309Z,5.07
2023-02-05T03:46:20.312Z,5.07
2023-02-05T03:47:20.288Z,5.06
2023-02-05T03:48:20.382Z,5.04
2023-02-05T03:49:20.264Z,5.00
2023-02-05T03:50:20.264Z,4.94
2023-02-05T03:51:20.230Z,4.96
2023-02-05T03:52:20.226Z,4.98
2023-02-05T03:53:20.282Z,5.00
2023-02-05T03:54:20.191Z,5.04
2023-02-05T03:55:20.218Z,5.04
2023-02-05T03:56:20.192Z,5.09
2023-02-05T03:57:20.201Z,5.12
2023-02-05T03:58:20.185Z,5.15
2023-02-05T03:59:20.133Z,5.18
2023-02-05T04:00:20.134Z,5.19
2023-02-05T04:01:20.223Z,5.18
2023-02-05T04:02:20.185Z,5.19
2023-02-05T04:03:20.111Z,5.18
2023-02-05T04:04:20.098Z,5.11
2023-02-05T04:05:20.133Z,5.09
2023-02-05T04:06:20.097Z,5.09
2023-02-05T04:07:20.065Z,5.06
2023-02-05T04:08:20.070Z,5.07
2023-02-05T04:09:20.041Z,5.04
2023-02-05T04:10:20.046Z,5.09
2023-02-05T04:11:20.064Z,5.14
2023-02-05T04:12:20.036Z,5.09
2023-02-05T04:13:20.008Z,5.18
2023-02-05T04:14:20.071Z,5.21
2023-02-05T04:15:19.975Z,5.22
2023-02-05T04:16:19.975Z,5.22
2023-02-05T04:17:20.058Z,5.25
2023-02-05T04:18:19.955Z,5.19
2023-02-05T04:19:19.943Z,5.19
2023-02-05T04:20:19.961Z,5.21
2023-02-05T04:21:19.920Z,5.22
2023-02-05T04:22:19.973Z,5.21
2023-02-05T04:23:19.991Z,5.27
2023-02-05T04:24:19.916Z,5.29
2023-02-05T04:25:19.876Z,5.29
2023-02-05T04:26:19.862Z,5.30
2023-02-05T04:27:19.902Z,5.29
2023-02-05T04:28:19.861Z,5.27
2023-02-05T04:29:19.824Z,5.22
2023-02-05T04:30:19.840Z,5.18
2023-02-05T04:31:19.832Z,5.16
2023-02-05T04:32:19.852Z,5.15
2023-02-05T04:33:19.792Z,5.14
2023-02-05T04:34:19.795Z,5.09
2023-02-05T04:35:19.811Z,5.07
2023-02-05T04:36:19.767Z,5.03
2023-02-05T04:37:19.781Z,5.01
2023-02-05T04:38:19.786Z,4.98
2023-02-05T04:39:19.784Z,5.01
2023-02-05T04:40:19.730Z,5.00
2023-02-05T04:41:19.820Z,5.00
2023-02-05T04:42:19.776Z,5.00
2023-02-05T04:43:19.703Z,5.00
2023-02-05T04:44:19.680Z,4.96
2023-02-05T04:45:19.697Z,4.94
2023-02-05T04:46:19.694Z,4.96
2023-02-05T04:47:19.670Z,4.93
2023-02-05T04:48:19.692Z,4.94
2023-02-05T04:49:19.648Z,4.94
2023-02-05T04:50:19.625Z,4.96
2023-02-05T04:51:19.658Z,4.97
2023-02-05T04:52:19.626Z,4.97
2023-02-05T04:53:19.583Z,4.97
2023-02-05T04:54:19.615Z,5.01
2023-02-05T04:55:19.594Z,5.00
2023-02-05T04:56:19.582Z,5.01
2023-02-05T04:57:19.623Z,5.01
2023-02-05T04:58:19.544Z,5.01
2023-02-05T04:59:19.558Z,5.01
2023-02-05T05:00:19.551Z,5.01
2023-02-05T05:01:19.558Z,4.98
2023-02-05T05:02:19.580Z,4.97
2023-02-05T05:03:19.512Z,4.98
2023-02-05T05:04:19.505Z,5.00
2023-02-05T05:05:19.505Z,5.01
2023-02-05T05:06:19.493Z,5.04
2023-02-05T05:07:19.455Z,5.01
2023-02-05T05:08:19.448Z,5.03
2023-02-05T05:09:19.476Z,5.03
2023-02-05T05:10:19.419Z,5.04
2023-02-05T05:11:19.494Z,5.03
2023-02-05T05:12:19.401Z,5.01
2023-02-05T05:13:19.402Z,5.07
2023-02-05T05:14:19.406Z,5.04
2023-02-05T05:15:19.412Z,5.03
2023-02-05T05:16:19.400Z,4.98
2023-02-05T05:17:19.365Z,5.01
2023-02-05T05:18:19.519Z,4.97
2023-02-05T05:19:19.353Z,4.97
2023-02-05T05:20:19.391Z,4.98
2023-02-05T05:21:19.310Z,4.94
2023-02-05T05:22:19.309Z,4.96
2023-02-05T05:23:19.381Z,4.93
2023-02-05T05:24:19.322Z,4.88
2023-02-05T05:25:19.287Z,4.88
2023-02-05T05:26:19.325Z,4.88
2023-02-05T05:27:19.288Z,4.91
2023-02-05T05:28:19.240Z,4.86
2023-02-05T05:29:19.256Z,4.85
2023-02-05T05:30:19.273Z,4.85
2023-02-05T05:31:19.278Z,4.93
2023-02-05T05:32:19.272Z,4.94
2023-02-05T05:33:19.229Z,4.96
2023-02-05T05:34:19.181Z,4.94
2023-02-05T05:35:19.248Z,4.96
2023-02-05T05:36:19.155Z,4.96
2023-02-05T05:37:19.152Z,4.91
2023-02-05T05:38:19.175Z,4.86
2023-02-05T05:39:19.177Z,4.86
2023-02-05T05:40:19.112Z,4.83
2023-02-05T05:41:19.121Z,4.79
2023-02-05T05:42:19.138Z,4.77
2023-02-05T05:43:19.109Z,4.77
2023-02-05T05:44:19.198Z,4.82
2023-02-05T05:45:19.088Z,4.75
2023-02-05T05:46:19.090Z,4.74
2023-02-05T05:47:19.059Z,4.77
2023-02-05T05:48:19.040Z,4.75
2023-02-05T05:49:19.036Z,4.78
2023-02-05T05:50:19.057Z,4.82
2023-02-05T05:51:19.016Z,4.82
2023-02-05T05:52:19.009Z,4.79
2023-02-05T05:53:18.979Z,4.78
2023-02-05T05:54:19.030Z,4.79
2023-02-05T05:55:18.972Z,4.78
2023-02-05T05:56:18.968Z,4.77
2023-02-05T05:57:18.995Z,4.74
2023-02-05T05:58:18.972Z,4.74
2023-02-05T05:59:18.912Z,4.78
2023-02-05T06:00:18.951Z,4.75
2023-02-05T06:01:18.891Z,4.72
2023-02-05T06:02:18.948Z,4.71
2023-02-05T06:03:18.909Z,4.71
2023-02-05T06:04:18.953Z,4.71
2023-02-05T06:05:18.898Z,4.67
2023-02-05T06:06:18.848Z,4.67
2023-02-05T06:07:18.850Z,4.67
2023-02-05T06:08:18.872Z,4.67
2023-02-05T06:09:18.822Z,4.71
2023-02-05T06:10:18.823Z,4.71
2023-02-05T06:11:18.800Z,4.72
2023-02-05T06:12:18.835Z,4.75
2023-02-05T06:13:18.840Z,4.72
2023-02-05T06:14:18.796Z,4.72
2023-02-05T06:15:18.772Z,4.72
2023-02-05T06:16:18.768Z,4.75
2023-02-05T06:17:18.726Z,4.72
2023-02-05T06:18:18.751Z,4.67
2023-02-05T06:19:18.734Z,4.75
2023-02-05T06:20:18.700Z,4.77
2023-02-05T06:21:18.695Z,4.78
2023-02-05T06:22:18.703Z,4.78
2023-02-05T06:23:18.700Z,4.77
2023-02-05T06:24:18.785Z,4.75
2023-02-05T06:25:18.648Z,4.75
2023-02-05T06:26:18.603Z,4.75
2023-02-05T06:27:18.652Z,4.75
2023-02-05T06:28:18.706Z,4.74
2023-02-05T06:29:18.637Z,4.75
2023-02-05T06:30:18.629Z,4.74
2023-02-05T06:31:18.725Z,4.74
2023-02-05T06:32:18.597Z,4.74
2023-02-05T06:33:18.606Z,4.74
2023-02-05T06:34:18.552Z,4.75
2023-02-05T06:35:18.531Z,4.78
2023-02-05T06:36:18.506Z,4.74
2023-02-05T06:37:18.556Z,4.74
2023-02-05T06:38:18.550Z,4.72
2023-02-05T06:39:18.461Z,4.75
2023-02-05T06:40:18.512Z,4.67
2023-02-05T06:41:18.461Z,4.67
2023-02-05T06:42:18.489Z,4.61
2023-02-05T06:43:18.435Z,4.59
2023-02-05T06:44:18.418Z,4.57
2023-02-05T06:45:18.457Z,4.56
2023-02-05T06:46:18.419Z,4.57
2023-02-05T06:47:18.373Z,4.61
2023-02-05T06:48:18.405Z,4.63
2023-02-05T06:49:18.439Z,4.61
2023-02-05T06:50:18.360Z,4.59
2023-02-05T06:51:18.356Z,4.60
2023-02-05T06:52:18.359Z,4.59
2023-02-05T06:53:18.321Z,4.56
2023-02-05T06:54:18.343Z,4.54
2023-02-05T06:55:18.316Z,4.54
2023-02-05T06:56:18.341Z,4.60
2023-02-05T06:57:18.272Z,4.61
2023-02-05T06:58:18.275Z,4.67
2023-02-05T06:59:18.272Z,4.69
2023-02-05T07:00:18.290Z,4.67
2023-02-05T07:01:18.336Z,4.72
2023-02-05T07:02:18.233Z,4.71
2023-02-05T07:03:18.248Z,4.72
2023-02-05T07:04:18.212Z,4.75
2023-02-05T07:05:18.210Z,4.72
2023-02-05T07:06:18.228Z,4.71
2023-02-05T07:07:18.198Z,4.72
2023-02-05T07:08:18.210Z,4.72
2023-02-05T07:09:18.204Z,4.64
2023-02-05T07:10:18.165Z,4.63
2023-02-05T07:11:18.171Z,4.64
2023-02-05T07:12:18.136Z,4.63
2023-02-05T07:13:18.184Z,4.60
2023-02-05T07:14:18.123Z,4.61
2023-02-05T07:15:18.096Z,4.54
2023-02-05T07:16:18.167Z,4.48
2023-02-05T07:17:18.116Z,4.45
2023-02-05T07:18:18.093Z,4.43
2023-02-05T07:19:18.088Z,4.43
2023-02-05T07:20:18.088Z,4.46
2023-02-05T07:21:18.040Z,4.45
2023-02-05T07:22:18.113Z,4.51
2023-02-05T07:23:18.063Z,4.45
2023-02-05T07:24:18.009Z,4.45
2023-02-05T07:25:18.032Z,4.46
2023-02-05T07:26:18.277Z,4.49
2023-02-05T07:27:17.987Z,4.48
2023-02-05T07:28:18.117Z,4.46
2023-02-05T07:29:18.051Z,4.45
2023-02-05T07:30:17.973Z,4.46
2023-02-05T07:31:18.021Z,4.49
2023-02-05T07:32:17.966Z,4.53
2023-02-05T07:33:17.930Z,4.66
2023-02-05T07:34:17.940Z,4.67
2023-02-05T07:35:17.921Z,4.74
2023-02-05T07:36:17.938Z,4.75
2023-02-05T07:37:19.090Z,4.77
2023-02-05T07:38:17.884Z,4.74
2023-02-05T07:39:17.945Z,4.77
2023-02-05T07:40:17.914Z,4.78
2023-02-05T07:41:17.891Z,4.83
2023-02-05T07:42:17.873Z,4.86
2023-02-05T07:43:17.825Z,4.86
2023-02-05T07:44:17.846Z,4.89
2023-02-05T07:45:17.824Z,4.91
2023-02-05T07:46:17.847Z,4.97
2023-02-05T07:47:17.828Z,4.96
2023-02-05T07:48:17.808Z,4.97
2023-02-05T07:49:17.814Z,4.89
2023-02-05T07:50:17.763Z,4.88
2023-02-05T07:51:17.741Z,4.82
2023-02-05T07:52:17.772Z,4.82
2023-02-05T07:53:17.731Z,4.74
2023-02-05T07:54:17.762Z,4.77
2023-02-05T07:55:17.764Z,4.74
2023-02-05T07:56:17.690Z,4.72
2023-02-05T07:57:17.685Z,4.71
2023-02-05T07:58:17.688Z,4.74
2023-02-05T07:59:17.684Z,4.75
2023-02-05T08:00:17.683Z,4.74
2023-02-05T08:01:17.677Z,4.77
2023-02-05T08:02:17.663Z,4.77
2023-02-05T08:03:17.615Z,4.77
2023-02-05T08:04:17.802Z,4.79
2023-02-05T08:05:17.622Z,4.83
2023-02-05T08:06:17.625Z,4.88
2023-02-05T08:07:17.585Z,4.86
2023-02-05T08:08:17.579Z,4.86
2023-02-05T08:09:17.687Z,4.83
2023-02-05T08:10:17.617Z,4.88
2023-02-05T08:11:17.560Z,4.85
2023-02-05T08:12:17.586Z,4.89
2023-02-05T08:13:17.542Z,4.91
2023-02-05T08:14:17.517Z,4.94
2023-02-05T08:15:17.517Z,4.97
2023-02-05T08:16:17.580Z,4.91
2023-02-05T08:17:17.488Z,4.91
2023-02-05T08:18:17.527Z,4.91
2023-02-05T08:19:17.466Z,4.86
2023-02-05T08:20:17.461Z,4.83
2023-02-05T08:21:17.494Z,4.86
2023-02-05T08:22:17.432Z,4.85
2023-02-05T08:23:17.489Z,4.88
2023-02-05T08:24:17.444Z,4.88
2023-02-05T08:25:17.457Z,4.91
2023-02-05T08:26:17.435Z,4.93
2023-02-05T08:27:17.989Z,4.91
2023-02-05T08:28:17.407Z,4.91
2023-02-05T08:29:17.384Z,4.98
2023-02-05T08:30:17.392Z,5.03
2023-02-05T08:31:17.391Z,5.00
2023-02-05T08:32:17.403Z,4.97
2023-02-05T08:33:17.350Z,4.97
2023-02-05T08:34:19.286Z,4.98
2023-02-05T08:35:17.326Z,5.00
2023-02-05T08:36:17.306Z,4.97
2023-02-05T08:37:17.282Z,4.97
2023-02-05T08:38:17.296Z,5.03
2023-02-05T08:39:17.257Z,5.06
2023-02-05T08:40:17.261Z,5.07
2023-02-05T08:41:17.256Z,5.04
2023-02-05T08:42:17.292Z,5.03
2023-02-05T08:43:17.243Z,5.06
2023-02-05T08:44:17.992Z,5.03
2023-02-05T08:45:17.209Z,5.06
2023-02-05T08:46:17.278Z,5.04
2023-02-05T08:47:17.204Z,5.04
2023-02-05T08:48:17.216Z,5.07
2023-02-05T08:49:17.176Z,5.01
2023-02-05T08:50:17.161Z,5.03
2023-02-05T08:51:17.161Z,5.03
2023-02-05T08:52:17.231Z,5.03
2023-02-05T08:53:17.106Z,5.04
2023-02-05T08:54:17.145Z,5.12
2023-02-05T08:55:17.134Z,5.15
2023-02-05T08:56:18.689Z,5.16
2023-02-05T08:57:17.129Z,5.16
2023-02-05T08:58:17.077Z,5.16
2023-02-05T08:59:17.073Z,5.12
2023-02-05T09:00:17.069Z,5.11
2023-02-05T09:01:17.262Z,5.07
2023-02-05T09:02:17.059Z,5.11
2023-02-05T09:03:17.008Z,5.11
2023-02-05T09:04:17.168Z,5.07
2023-02-05T09:05:17.034Z,5.09
2023-02-05T09:06:17.021Z,5.04
2023-02-05T09:07:16.985Z,5.06
2023-02-05T09:08:16.956Z,5.01
2023-02-05T09:09:16.985Z,5.00
2023-02-05T09:10:16.944Z,4.96
2023-02-05T09:11:17.049Z,4.93
2023-02-05T09:12:16.967Z,4.86
2023-02-05T09:13:16.911Z,4.93
2023-02-05T09:14:16.932Z,4.97
2023-02-05T09:15:16.904Z,5.04
2023-02-05T09:16:16.931Z,5.11
2023-02-05T09:17:16.894Z,5.18
2023-02-05T09:18:16.854Z,5.25
2023-02-05T09:19:16.894Z,5.32
2023-02-05T09:20:16.831Z,5.37
2023-02-05T09:21:16.856Z,5.32
2023-02-05T09:22:16.813Z,5.32
2023-02-05T09:23:16.823Z,5.32
2023-02-05T09:24:16.823Z,5.33
2023-02-05T09:25:16.856Z,5.34
2023-02-05T09:26:16.790Z,5.30
2023-02-05T09:27:16.779Z,5.25
2023-02-05T09:28:16.811Z,5.22
2023-02-05T09:29:16.776Z,5.27
2023-02-05T09:30:16.757Z,5.32
2023-02-05T09:31:16.925Z,5.41
2023-02-05T09:32:16.724Z,5.48
2023-02-05T09:33:16.730Z,5.54
2023-02-05T09:34:16.706Z,5.51
2023-02-05T09:35:16.714Z,5.57
2023-02-05T09:36:16.668Z,5.59
2023-02-05T09:37:16.703Z,5.58
2023-02-05T09:38:16.681Z,5.54
2023-02-05T09:39:44.120Z,5.54
2023-02-05T09:40:21.030Z,5.54
2023-02-05T09:41:16.626Z,5.47
2023-02-05T09:42:16.667Z,5.50
2023-02-05T09:43:16.618Z,5.43
2023-02-05T09:44:16.620Z,5.37
2023-02-05T09:45:16.625Z,5.37
2023-02-05T09:46:16.677Z,5.32
2023-02-05T09:47:16.660Z,5.34
2023-02-05T09:48:16.638Z,5.32
2023-02-05T09:49:16.546Z,5.34
2023-02-05T09:50:16.564Z,5.32
2023-02-05T09:51:16.555Z,5.30
2023-02-05T09:52:16.543Z,5.30
2023-02-05T09:53:16.503Z,5.30
2023-02-05T09:54:16.581Z,5.34
2023-02-05T09:55:17.476Z,5.34
2023-02-05T09:56:16.523Z,5.34
2023-02-05T09:57:16.461Z,5.34
2023-02-05T09:58:16.485Z,5.36
2023-02-05T09:59:16.481Z,5.34
2023-02-05T10:00:16.448Z,5.37
2023-02-05T10:01:16.517Z,5.39
2023-02-05T10:02:16.465Z,5.44
2023-02-05T10:03:16.421Z,5.47
2023-02-05T10:04:16.460Z,5.54
2023-02-05T10:05:16.404Z,5.54
2023-02-05T10:06:16.368Z,5.55
2023-02-05T10:07:16.392Z,5.54
2023-02-05T10:08:16.379Z,5.51
2023-02-05T10:09:16.369Z,5.43
2023-02-05T10:10:16.368Z,5.41
2023-02-05T10:11:16.440Z,5.41
2023-02-05T10:12:16.325Z,5.40
2023-02-05T10:13:16.297Z,5.44
2023-02-05T10:14:16.313Z,5.52
2023-02-05T10:15:16.339Z,5.51
2023-02-05T10:16:16.378Z,5.50
2023-02-05T10:17:16.256Z,5.51
2023-02-05T10:18:16.239Z,5.50
2023-02-05T10:19:16.264Z,5.48
2023-02-05T10:20:16.271Z,5.51
2023-02-05T10:21:16.264Z,5.54
2023-02-05T10:22:16.213Z,5.52
2023-02-05T10:23:16.190Z,5.48
2023-02-05T10:24:16.206Z,5.47
2023-02-05T10:25:16.190Z,5.44
2023-02-05T10:26:16.253Z,5.47
2023-02-05T10:27:16.151Z,5.43
2023-02-05T10:28:16.251Z,5.41
2023-02-05T10:29:16.177Z,5.40
2023-02-05T10:30:16.148Z,5.47
2023-02-05T10:31:16.353Z,5.48
2023-02-05T10:32:16.133Z,5.44
2023-02-05T10:33:16.147Z,5.44
2023-02-05T10:34:16.096Z,5.44
2023-02-05T10:35:16.080Z,5.41
2023-02-05T10:36:16.071Z,5.39
2023-02-05T10:37:16.087Z,5.39
2023-02-05T10:38:16.057Z,5.39
2023-02-05T10:39:16.082Z,5.36
2023-02-05T10:40:17.007Z,5.39
2023-02-05T10:41:16.981Z,5.40
2023-02-05T10:42:16.086Z,5.39
2023-02-05T10:43:16.048Z,5.34
2023-02-05T10:44:16.038Z,5.34
2023-02-05T10:45:17.469Z,5.36
2023-02-05T10:46:16.037Z,5.37
2023-02-05T10:47:15.996Z,5.37
2023-02-05T10:48:15.967Z,5.36
2023-02-05T10:49:15.933Z,5.36
2023-02-05T10:50:16.019Z,5.34
2023-02-05T10:51:15.983Z,5.34
2023-02-05T10:52:15.906Z,5.32
2023-02-05T10:53:15.917Z,5.33
2023-02-05T10:54:15.959Z,5.29
2023-02-05T10:55:15.934Z,5.22
2023-02-05T10:56:15.858Z,5.22
2023-02-05T10:57:15.877Z,5.25
2023-02-05T10:58:15.846Z,5.32
2023-02-05T10:59:15.914Z,5.32
2023-02-05T11:00:15.908Z,5.34
2023-02-05T11:01:15.951Z,5.36
2023-02-05T11:02:15.847Z,5.44
2023-02-05T11:03:15.821Z,5.48
2023-02-05T11:04:15.783Z,5.44
2023-02-05T11:05:15.799Z,5.43
2023-02-05T11:06:15.750Z,5.44
2023-02-05T11:07:15.775Z,5.40
2023-02-05T11:08:15.783Z,5.34
2023-02-05T11:09:15.733Z,5.29
2023-02-05T11:10:15.724Z,5.18
2023-02-05T11:11:15.780Z,5.15
2023-02-05T11:12:15.750Z,5.16
2023-02-05T11:13:15.691Z,5.18
2023-02-05T11:14:15.693Z,5.15
2023-02-05T11:15:15.704Z,5.15
2023-02-05T11:16:15.734Z,5.21
2023-02-05T11:17:15.691Z,5.22
2023-02-05T11:18:15.655Z,5.27
2023-02-05T11:19:15.708Z,5.32
2023-02-05T11:20:15.615Z,5.34
2023-02-05T11:21:15.661Z,5.41
2023-02-05T11:22:15.622Z,5.41
2023-02-05T11:23:15.693Z,5.51
2023-02-05T11:24:15.719Z,5.51
2023-02-05T11:25:15.704Z,5.41
2023-02-05T11:26:15.602Z,5.33
2023-02-05T11:27:15.626Z,5.30
2023-02-05T11:28:15.641Z,5.30
2023-02-05T11:29:15.552Z,5.22
2023-02-05T11:30:15.538Z,5.27
2023-02-05T11:31:15.872Z,5.27
2023-02-05T11:32:15.610Z,5.33
2023-02-05T11:33:15.552Z,5.40
2023-02-05T11:34:15.496Z,5.41
2023-02-05T11:35:15.511Z,5.51
2023-02-05T11:36:15.503Z,5.51
2023-02-05T11:37:15.988Z,5.51
2023-02-05T11:38:15.466Z,5.57
2023-02-05T11:39:15.466Z,5.57
2023-02-05T11:40:15.436Z,5.58
2023-02-05T11:41:15.421Z,5.55
2023-02-05T11:42:15.471Z,5.54
2023-02-05T11:43:15.432Z,5.50
2023-02-05T11:44:15.384Z,5.47
2023-02-05T11:45:15.402Z,5.41
2023-02-05T11:46:15.459Z,5.40
2023-02-05T11:47:15.371Z,5.39
2023-02-05T11:48:15.434Z,5.36
2023-02-05T11:49:15.339Z,5.39
2023-02-05T11:50:17.320Z,5.33
2023-02-05T11:51:15.352Z,5.33
2023-02-05T11:52:15.295Z,5.30
2023-02-05T11:53:15.295Z,5.33
2023-02-05T11:54:15.402Z,5.29
2023-02-05T11:55:15.984Z,5.27
2023-02-05T11:56:15.295Z,5.27
2023-02-05T11:57:15.337Z,5.29
2023-02-05T11:58:17.026Z,5.32
2023-02-05T11:59:15.235Z,5.34
2023-02-05T12:00:15.215Z,5.36
2023-02-05T12:01:15.202Z,5.37
2023-02-05T12:02:15.237Z,5.37
2023-02-05T12:03:15.223Z,5.40
2023-02-05T12:04:15.222Z,5.41
2023-02-05T12:05:15.184Z,5.44
2023-02-05T12:06:15.178Z,5.48
2023-02-05T12:07:15.182Z,5.51
2023-02-05T12:08:15.156Z,5.51
2023-02-05T12:09:15.165Z,5.48
2023-02-05T12:10:15.110Z,5.50
2023-02-05T12:11:15.095Z,5.50
2023-02-05T12:12:15.103Z,5.52
2023-02-05T12:13:15.122Z,5.54
2023-02-05T12:14:15.081Z,5.52
2023-02-05T12:15:16.003Z,5.47
2023-02-05T12:16:15.080Z,5.44
2023-02-05T12:17:15.107Z,5.47
2023-02-05T12:18:15.175Z,5.43
2023-02-05T12:19:15.100Z,5.47
2023-02-05T12:20:15.048Z,5.51
2023-02-05T12:21:15.040Z,5.52
2023-02-05T12:22:15.143Z,5.54
2023-02-05T12:23:15.039Z,5.55
2023-02-05T12:24:15.014Z,5.58
2023-02-05T12:25:14.965Z,5.59
2023-02-05T12:26:14.981Z,5.58
2023-02-05T12:27:14.942Z,5.57
2023-02-05T12:28:15.054Z,5.55
2023-02-05T12:29:14.948Z,5.58
2023-02-05T12:30:15.065Z,5.59
2023-02-05T12:31:14.967Z,5.62
2023-02-05T12:32:14.874Z,5.61
2023-02-05T12:33:14.919Z,5.59
2023-02-05T12:34:14.902Z,5.62
2023-02-05T12:35:14.876Z,5.67
2023-02-05T12:36:14.867Z,5.67
2023-02-05T12:37:14.821Z,5.70
2023-02-05T12:38:21.070Z,5.69
2023-02-05T12:39:14.820Z,5.69
2023-02-05T12:40:14.861Z,5.72
2023-02-05T12:41:14.796Z,5.72
2023-02-05T12:42:14.788Z,5.72
2023-02-05T12:43:14.784Z,5.75
2023-02-05T12:44:14.782Z,5.75
2023-02-05T12:45:14.806Z,5.72
2023-02-05T12:46:15.562Z,5.69
2023-02-05T12:47:14.860Z,5.75
2023-02-05T12:48:14.721Z,5.72
2023-02-05T12:49:14.771Z,5.70
2023-02-05T12:50:14.701Z,5.67
2023-02-05T12:51:14.706Z,5.67
2023-02-05T12:52:14.681Z,5.65
2023-02-05T12:53:14.717Z,5.61
2023-02-05T12:54:14.679Z,5.61
2023-02-05T12:55:14.690Z,5.61
2023-02-05T12:56:14.695Z,5.61
2023-02-05T12:57:14.682Z,5.62
2023-02-05T12:58:14.637Z,5.70
2023-02-05T12:59:14.611Z,5.76
2023-02-05T13:00:14.616Z,5.82
2023-02-05T13:01:14.616Z,5.84
2023-02-05T13:02:14.568Z,5.87
2023-02-05T13:03:14.614Z,5.93
2023-02-05T13:04:14.613Z,5.94
2023-02-05T13:05:14.551Z,6.02
2023-02-05T13:06:14.529Z,6.03
2023-02-05T13:07:14.537Z,6.02
2023-02-05T13:08:14.548Z,6.03
2023-02-05T13:09:14.507Z,6.03
2023-02-05T13:10:14.521Z,6.09
2023-02-05T13:11:14.493Z,6.06
2023-02-05T13:12:14.476Z,6.08
2023-02-05T13:13:14.469Z,6.08
2023-02-05T13:14:14.528Z,6.13
2023-02-05T13:15:14.461Z,6.12
2023-02-05T13:16:14.482Z,6.13
2023-02-05T13:17:14.477Z,6.12
2023-02-05T13:18:14.411Z,6.12